createdAt,value
2022-09-05T00:00:19.392Z,22.23
2022-09-05T00:03:25.554Z,22.25
2022-09-05T00:06:11.635Z,22.17
2022-09-05T00:09:27.757Z,22.17
2022-09-05T00:12:00.801Z,22.07
2022-09-05T00:15:15.981Z,22.07
2022-09-05T00:19:16.172Z,22.16
2022-09-05T00:24:24.986Z,22.26
2022-09-05T00:24:42.730Z,22.05
2022-09-05T00:27:10.220Z,22.00
2022-09-05T00:31:05.480Z,21.87
2022-09-05T00:32:39.425Z,21.97
2022-09-05T00:35:40.459Z,21.92
2022-09-05T00:38:16.925Z,21.97
2022-09-05T00:40:52.168Z,22.16
2022-09-05T00:43:23.343Z,22.31
2022-09-05T00:46:02.484Z,22.12
2022-09-05T00:48:46.459Z,22.09
2022-09-05T00:51:29.195Z,21.71
2022-09-05T00:54:01.703Z,21.85
2022-09-05T00:56:50.990Z,22.00
2022-09-05T01:00:01.566Z,21.89
2022-09-05T01:02:32.132Z,21.71
2022-09-05T01:05:35.462Z,21.49
2022-09-05T01:08:16.770Z,21.51
2022-09-05T01:10:58.018Z,21.56
2022-09-05T01:13:45.536Z,21.67
2022-09-05T01:16:24.665Z,21.57
2022-09-05T01:19:15.977Z,21.65
2022-09-05T01:21:52.220Z,21.60
2022-09-05T01:25:04.996Z,21.44
2022-09-05T01:29:14.019Z,21.55
2022-09-05T01:31:00.751Z,21.61
2022-09-05T01:33:43.241Z,21.77
2022-09-05T01:36:17.221Z,21.66
2022-09-05T01:40:14.209Z,21.36
2022-09-05T01:42:25.444Z,21.29
2022-09-05T01:45:27.230Z,21.05
2022-09-05T01:48:09.997Z,21.36
2022-09-05T01:51:03.001Z,21.22
2022-09-05T01:53:51.168Z,21.05
2022-09-05T01:56:18.050Z,21.19
2022-09-05T01:58:54.155Z,21.05
2022-09-05T02:01:30.018Z,21.01
2022-09-05T02:04:41.465Z,21.20
2022-09-05T02:07:45.545Z,21.18
2022-09-05T02:10:24.880Z,21.12
2022-09-05T02:13:11.537Z,21.14
2022-09-05T02:16:03.211Z,21.13
2022-09-05T02:18:49.244Z,21.08
2022-09-05T02:21:24.487Z,20.84
2022-09-05T02:24:50.020Z,20.81
2022-09-05T02:28:04.004Z,20.14
2022-09-05T02:31:01.547Z,20.15
2022-09-05T02:33:38.566Z,20.08
2022-09-05T02:36:18.205Z,20.13
2022-09-05T02:40:59.886Z,20.05
2022-09-05T02:45:12.048Z,19.91
2022-09-05T02:45:33.847Z,19.99
2022-09-05T02:48:22.309Z,19.98
2022-09-05T02:57:29.200Z,19.99
2022-09-05T02:57:35.594Z,19.92
2022-09-05T02:58:04.220Z,19.89
2022-09-05T03:00:22.092Z,19.89
2022-09-05T03:03:18.297Z,19.98
2022-09-05T03:06:06.341Z,19.89
2022-09-05T03:08:52.014Z,20.10
2022-09-05T03:11:50.520Z,20.45
2022-09-05T03:14:23.209Z,20.46
2022-09-05T03:17:08.303Z,20.39
2022-09-05T03:19:50.250Z,20.42
2022-09-05T03:22:27.338Z,20.37
2022-09-05T03:25:12.472Z,20.43
2022-09-05T03:27:48.407Z,20.52
2022-09-05T03:30:22.709Z,20.52
2022-09-05T03:33:07.572Z,20.33
2022-09-05T03:35:59.251Z,20.40
2022-09-05T03:38:48.943Z,20.43
2022-09-05T03:41:46.682Z,20.31
2022-09-05T03:44:32.485Z,20.33
2022-09-05T03:47:23.389Z,20.35
2022-09-05T03:52:59.780Z,20.28
2022-09-05T03:57:11.361Z,20.22
2022-09-05T03:57:13.651Z,20.26
2022-09-05T03:59:24.245Z,20.25
2022-09-05T04:04:39.264Z,20.24
2022-09-05T04:08:14.567Z,20.09
2022-09-05T04:08:33.069Z,20.05
2022-09-05T04:11:35.666Z,20.15
2022-09-05T04:14:47.435Z,20.06
2022-09-05T04:17:32.172Z,19.87
2022-09-05T04:20:12.375Z,19.89
2022-09-05T04:23:00.919Z,19.91
2022-09-05T04:26:01.416Z,19.84
2022-09-05T04:28:53.220Z,19.86
2022-09-05T04:31:34.935Z,19.67
2022-09-05T04:34:16.773Z,19.71
2022-09-05T04:36:45.325Z,19.75
2022-09-05T04:39:18.422Z,19.57
2022-09-05T04:41:51.351Z,19.53
2022-09-05T04:44:26.603Z,19.46
2022-09-05T04:47:19.497Z,19.50
2022-09-05T04:50:20.839Z,19.30
2022-09-05T04:53:00.050Z,19.44
2022-09-05T04:55:46.730Z,19.31
2022-09-05T04:59:14.520Z,19.35
2022-09-05T05:06:05.204Z,19.42
2022-09-05T05:06:11.747Z,19.53
2022-09-05T05:07:24.959Z,19.52
2022-09-05T05:12:02.827Z,19.50
2022-09-05T05:17:29.907Z,19.51
2022-09-05T05:18:09.769Z,19.31
2022-09-05T05:18:59.078Z,19.36
2022-09-05T05:21:31.718Z,19.06
2022-09-05T05:24:09.327Z,18.75
2022-09-05T05:27:14.537Z,18.71
2022-09-05T05:29:49.143Z,18.82
2022-09-05T05:32:45.125Z,18.89
2022-09-05T05:35:48.083Z,18.94
2022-09-05T05:38:18.178Z,19.02
2022-09-05T05:40:50.765Z,19.14
2022-09-05T05:43:34.069Z,19.21
2022-09-05T05:46:01.563Z,19.31
2022-09-05T05:48:35.853Z,19.31
2022-09-05T05:52:01.792Z,19.41
2022-09-05T05:54:32.906Z,19.52
2022-09-05T05:57:18.213Z,19.73
2022-09-05T06:00:14.761Z,19.58
2022-09-05T06:03:25.078Z,19.78
2022-09-05T06:06:10.674Z,19.85
2022-09-05T06:13:06.306Z,19.87
2022-09-05T06:14:56.532Z,20.29
2022-09-05T06:15:55.291Z,20.35
2022-09-05T06:18:48.600Z,20.36
2022-09-05T06:22:11.512Z,20.53
2022-09-05T06:24:30.235Z,20.55
2022-09-05T06:27:16.088Z,20.76
2022-09-05T06:30:01.732Z,20.87
2022-09-05T06:32:55.326Z,20.84
2022-09-05T06:35:37.336Z,20.97
2022-09-05T06:38:30.063Z,21.21
2022-09-05T06:41:25.677Z,21.32
2022-09-05T06:44:22.278Z,21.37
2022-09-05T06:47:23.840Z,21.43
2022-09-05T06:49:50.919Z,21.50
2022-09-05T06:52:55.199Z,21.85
2022-09-05T06:55:50.253Z,21.98
2022-09-05T06:58:36.342Z,21.93
2022-09-05T07:01:08.757Z,22.25
2022-09-05T07:05:23.459Z,22.48
2022-09-05T07:07:16.280Z,22.67
2022-09-05T07:10:06.086Z,22.57
2022-09-05T07:12:49.689Z,22.81
2022-09-05T07:15:36.260Z,22.98
2022-09-05T07:18:34.213Z,23.19
2022-09-05T07:21:17.336Z,23.02
2022-09-05T07:24:09.966Z,23.28
2022-09-05T07:26:53.957Z,23.23
2022-09-05T07:29:53.410Z,23.97
2022-09-05T07:32:31.611Z,24.28
2022-09-05T07:35:02.833Z,24.10
2022-09-05T07:37:39.923Z,24.33
2022-09-05T07:40:26.092Z,24.37
2022-09-05T07:43:09.318Z,24.50
2022-09-05T07:45:56.130Z,24.39
2022-09-05T07:48:35.881Z,24.47
2022-09-05T07:54:15.111Z,24.63
2022-09-05T07:57:01.708Z,24.92
2022-09-05T07:57:27.056Z,25.10
2022-09-05T07:59:48.319Z,25.17
2022-09-05T08:02:15.265Z,25.28
2022-09-05T08:04:42.394Z,25.45
2022-09-05T08:07:48.784Z,25.43
2022-09-05T08:10:53.603Z,25.77
2022-09-05T08:13:27.686Z,25.33
2022-09-05T08:16:09.755Z,25.57
2022-09-05T08:18:42.878Z,25.71
2022-09-05T08:21:39.901Z,25.51
2022-09-05T08:24:20.459Z,25.52
2022-09-05T08:26:47.667Z,25.68
2022-09-05T08:29:20.591Z,25.49
2022-09-05T08:31:53.404Z,25.77
2022-09-05T08:34:31.491Z,25.95
2022-09-05T08:37:21.078Z,26.09
2022-09-05T08:40:10.491Z,26.11
2022-09-05T08:46:12.616Z,26.47
2022-09-05T08:46:41.283Z,26.53
2022-09-05T08:48:55.071Z,26.44
2022-09-05T08:51:33.924Z,26.02
2022-09-05T08:54:31.157Z,26.31
2022-09-05T08:57:13.187Z,26.31
2022-09-05T09:00:19.897Z,26.03
2022-09-05T09:03:13.387Z,26.04
2022-09-05T09:06:15.701Z,25.54
2022-09-05T09:09:02.110Z,25.59
2022-09-05T09:11:41.402Z,25.68
2022-09-05T09:15:00.929Z,25.90
2022-09-05T09:17:46.024Z,26.27
2022-09-05T09:20:15.488Z,26.22
2022-09-05T09:22:47.318Z,26.01
2022-09-05T09:25:22.249Z,26.28
2022-09-05T09:28:46.669Z,26.28
2022-09-05T09:31:02.622Z,27.00
2022-09-05T09:33:40.405Z,26.94
2022-09-05T09:36:37.450Z,27.63
2022-09-05T09:39:37.146Z,27.09
2022-09-05T09:42:02.824Z,27.35
2022-09-05T09:44:41.719Z,27.27
2022-09-05T09:47:15.125Z,27.63
2022-09-05T09:49:48.145Z,27.47
2022-09-05T09:52:37.766Z,27.66
2022-09-05T09:55:43.522Z,27.92
2022-09-05T09:58:41.319Z,27.98
2022-09-05T10:01:36.471Z,28.22
2022-09-05T10:10:35.112Z,28.38
2022-09-05T10:10:48.189Z,28.01
2022-09-05T10:11:41.292Z,27.80
2022-09-05T10:14:05.692Z,27.94
2022-09-05T10:17:29.757Z,28.26
2022-09-05T10:20:29.493Z,28.45
2022-09-05T10:23:17.951Z,28.75
2022-09-05T10:26:24.749Z,28.98
2022-09-05T10:29:26.750Z,29.51
2022-09-05T10:34:35.729Z,29.72
2022-09-05T10:35:09.930Z,29.64
2022-09-05T10:37:51.423Z,29.59
2022-09-05T10:40:23.371Z,29.72
2022-09-05T10:43:02.169Z,29.47
2022-09-05T10:45:40.965Z,29.48
2022-09-05T10:48:36.296Z,29.61
2022-09-05T10:51:27.753Z,29.94
2022-09-05T10:54:03.986Z,30.15
2022-09-05T10:56:44.255Z,29.73
2022-09-05T11:01:48.585Z,29.95
2022-09-05T11:02:34.731Z,29.67
2022-09-05T11:05:21.986Z,29.52
2022-09-05T11:07:51.703Z,30.06
2022-09-05T11:10:40.494Z,30.61
2022-09-05T11:13:14.335Z,30.05
2022-09-05T11:16:12.734Z,30.14
2022-09-05T11:19:05.300Z,30.58
2022-09-05T11:21:38.009Z,30.78
2022-09-05T11:24:33.966Z,30.72
2022-09-05T11:27:25.430Z,30.97
2022-09-05T11:29:57.682Z,30.70
2022-09-05T11:38:53.640Z,30.63
2022-09-05T11:38:55.147Z,31.16
2022-09-05T11:40:08.820Z,30.96
2022-09-05T11:42:07.364Z,31.45
2022-09-05T11:44:58.326Z,31.49
2022-09-05T11:47:53.743Z,31.55
2022-09-05T11:50:54.094Z,31.44
2022-09-05T11:53:38.772Z,31.20
2022-09-05T11:56:28.936Z,31.37
2022-09-05T11:59:13.985Z,31.73
2022-09-05T12:02:23.916Z,31.73
2022-09-05T12:05:48.477Z,31.55
2022-09-05T12:08:18.174Z,31.90
2022-09-05T12:11:20.613Z,32.01
2022-09-05T12:14:01.007Z,32.13
2022-09-05T12:17:10.047Z,32.16
2022-09-05T12:19:57.613Z,32.30
2022-09-05T12:22:37.025Z,32.66
2022-09-05T12:25:24.787Z,32.39
2022-09-05T12:28:31.418Z,32.14
2022-09-05T12:30:53.113Z,32.33
2022-09-05T12:36:02.388Z,32.30
2022-09-05T12:40:53.695Z,33.06
2022-09-05T12:41:32.249Z,32.61
2022-09-05T12:43:33.451Z,32.66
2022-09-05T12:45:47.911Z,32.41
2022-09-05T12:48:39.081Z,32.65
2022-09-05T12:51:46.353Z,32.65
2022-09-05T12:54:33.514Z,32.43
2022-09-05T13:02:58.132Z,32.50
2022-09-05T13:03:09.578Z,32.20
2022-09-05T13:03:28.007Z,32.51
2022-09-05T13:06:09.334Z,32.48
2022-09-05T13:08:49.055Z,32.56
2022-09-05T13:14:47.918Z,32.24
2022-09-05T13:14:59.829Z,32.09
2022-09-05T13:17:16.669Z,31.93
2022-09-05T13:19:51.390Z,31.99
2022-09-05T13:22:21.495Z,32.19
2022-09-05T13:25:09.945Z,32.69
2022-09-05T13:27:43.648Z,32.42
2022-09-05T13:31:54.758Z,32.37
2022-09-05T13:38:04.153Z,32.56
2022-09-05T13:38:19.753Z,32.53
2022-09-05T13:39:10.926Z,32.29
2022-09-05T13:41:53.139Z,32.65
2022-09-05T13:44:26.431Z,32.50
2022-09-05T13:47:30.304Z,32.48
2022-09-05T13:50:13.747Z,32.71
2022-09-05T13:52:46.081Z,32.65
2022-09-05T13:55:18.837Z,33.15
2022-09-05T13:58:07.637Z,33.08
2022-09-05T14:00:38.804Z,33.27
2022-09-05T14:03:50.724Z,33.28
2022-09-05T14:06:51.447Z,33.31
2022-09-05T14:09:59.964Z,33.45
2022-09-05T14:12:32.536Z,33.36
2022-09-05T14:15:10.178Z,33.27
2022-09-05T14:17:59.445Z,33.75
2022-09-05T14:21:10.386Z,33.37
2022-09-05T14:24:00.378Z,33.44
2022-09-05T14:26:36.886Z,33.91
2022-09-05T14:29:17.506Z,33.37
2022-09-05T14:37:36.337Z,32.99
2022-09-05T14:37:50.295Z,33.35
2022-09-05T14:38:42.771Z,33.20
2022-09-05T14:42:02.742Z,33.68
2022-09-05T14:44:54.493Z,33.24
2022-09-05T14:47:47.446Z,33.20
2022-09-05T14:50:38.735Z,33.21
2022-09-05T14:57:02.104Z,33.60
2022-09-05T15:02:52.294Z,33.61
2022-09-05T15:03:00.617Z,33.72
2022-09-05T15:05:15.993Z,33.92
2022-09-05T15:07:50.566Z,33.90
2022-09-05T15:12:21.099Z,33.83
2022-09-05T15:13:16.917Z,33.61
2022-09-05T15:16:02.248Z,33.71
2022-09-05T15:18:36.770Z,33.69
2022-09-05T15:21:33.740Z,33.74
2022-09-05T15:24:14.420Z,34.05
2022-09-05T15:27:01.423Z,33.47
2022-09-05T15:29:30.604Z,33.58
2022-09-05T15:32:12.416Z,33.06
2022-09-05T15:34:39.633Z,32.56
2022-09-05T15:37:23.972Z,32.59
2022-09-05T15:40:07.619Z,32.56
2022-09-05T15:43:01.408Z,32.68
2022-09-05T15:45:35.463Z,33.07
2022-09-05T15:48:16.393Z,33.20
2022-09-05T15:50:51.285Z,32.65
2022-09-05T15:53:29.057Z,32.86
2022-09-05T15:56:14.203Z,32.83
2022-09-05T15:58:53.241Z,32.39
2022-09-05T16:01:58.979Z,31.89
2022-09-05T16:08:58.127Z,32.06
2022-09-05T16:10:37.636Z,31.96
2022-09-05T16:10:39.375Z,32.36
2022-09-05T16:13:17.466Z,32.26
2022-09-05T16:19:40.956Z,32.28
2022-09-05T16:23:28.981Z,32.07
2022-09-05T16:23:30.900Z,32.13
2022-09-05T16:24:27.112Z,32.19
2022-09-05T16:27:13.657Z,32.26
2022-09-05T16:29:46.337Z,32.21
2022-09-05T16:32:27.899Z,31.98
2022-09-05T16:34:57.843Z,31.97
2022-09-05T16:37:36.044Z,32.01
2022-09-05T16:40:15.697Z,32.28
2022-09-05T16:42:52.769Z,32.12
2022-09-05T16:45:35.233Z,32.02
2022-09-05T16:48:29.338Z,31.96
2022-09-05T16:51:34.799Z,31.80
2022-09-05T16:54:12.082Z,31.56
2022-09-05T16:56:45.380Z,31.33
2022-09-05T16:59:26.568Z,31.11
2022-09-05T17:02:19.945Z,30.85
2022-09-05T17:05:07.484Z,30.76
2022-09-05T17:08:14.079Z,30.37
2022-09-05T17:10:52.857Z,30.11
2022-09-05T17:13:36.921Z,30.11
2022-09-05T17:16:05.423Z,30.03
2022-09-05T17:18:35.239Z,29.87
2022-09-05T17:21:12.909Z,29.26
2022-09-05T17:29:18.886Z,29.01
2022-09-05T17:29:32.962Z,29.10
2022-09-05T17:32:49.029Z,28.99
2022-09-05T17:35:57.597Z,28.78
2022-09-05T17:38:43.049Z,28.76
2022-09-05T17:41:28.821Z,28.45
2022-09-05T17:44:15.807Z,28.19
2022-09-05T17:47:05.510Z,28.29
2022-09-05T17:49:45.454Z,27.95
2022-09-05T17:52:17.360Z,27.80
2022-09-05T17:54:51.019Z,27.53
2022-09-05T17:57:26.956Z,27.44
2022-09-05T18:00:12.431Z,27.60
2022-09-05T18:02:56.435Z,27.38
2022-09-05T18:05:54.204Z,26.93
2022-09-05T18:08:48.323Z,26.74
2022-09-05T18:11:26.265Z,26.91
2022-09-05T18:13:57.407Z,26.73
2022-09-05T18:17:36.962Z,26.71
2022-09-05T18:19:34.588Z,26.64
2022-09-05T18:22:08.264Z,26.71
2022-09-05T18:24:46.274Z,26.54
2022-09-05T18:28:03.879Z,26.36
2022-09-05T18:30:17.522Z,26.36
2022-09-05T18:33:54.502Z,26.15
2022-09-05T18:35:50.739Z,26.05
2022-09-05T18:38:49.860Z,26.02
2022-09-05T18:41:19.152Z,26.02
2022-09-05T18:44:13.285Z,25.88
2022-09-05T18:46:49.244Z,25.91
2022-09-05T18:49:57.611Z,25.92
2022-09-05T18:52:23.724Z,25.68
2022-09-05T18:56:09.291Z,25.60
2022-09-05T18:57:49.855Z,25.57
2022-09-05T19:00:35.039Z,25.49
2022-09-05T19:03:33.923Z,25.30
2022-09-05T19:06:35.610Z,25.40
2022-09-05T19:09:07.816Z,25.30
2022-09-05T19:11:57.528Z,25.23
2022-09-05T19:14:46.224Z,25.20
2022-09-05T19:17:19.253Z,25.33
2022-09-05T19:20:31.383Z,24.93
2022-09-05T19:23:11.786Z,25.00
2022-09-05T19:25:45.245Z,24.97
2022-09-05T19:32:39.022Z,24.78
2022-09-05T19:36:54.137Z,24.87
2022-09-05T19:37:24.274Z,24.96
2022-09-05T19:37:30.415Z,24.99
2022-09-05T19:43:02.556Z,24.85
2022-09-05T19:47:41.663Z,24.83
2022-09-05T19:47:41.669Z,24.98
2022-09-05T19:48:34.784Z,24.90
2022-09-05T19:51:17.032Z,24.85
2022-09-05T19:53:59.673Z,24.60
2022-09-05T19:56:45.715Z,24.48
2022-09-05T19:59:16.982Z,24.37
2022-09-05T20:01:44.665Z,24.27
2022-09-05T20:04:18.958Z,24.16
2022-09-05T20:06:48.146Z,24.14
2022-09-05T20:09:21.250Z,24.10
2022-09-05T20:11:53.561Z,23.95
2022-09-05T20:14:22.216Z,23.90
2022-09-05T20:16:51.214Z,23.69
2022-09-05T20:19:30.060Z,23.69
2022-09-05T20:22:45.161Z,23.65
2022-09-05T20:25:02.329Z,23.72
2022-09-05T20:27:30.297Z,23.67
2022-09-05T20:30:01.633Z,23.59
2022-09-05T20:32:39.632Z,23.71
2022-09-05T20:37:22.682Z,23.55
2022-09-05T20:43:22.633Z,23.61
2022-09-05T20:43:32.442Z,23.52
2022-09-05T20:43:55.887Z,23.40
2022-09-05T20:50:44.400Z,23.74
2022-09-05T20:54:05.523Z,23.83
2022-09-05T20:54:15.413Z,24.13
2022-09-05T20:55:41.307Z,23.54
2022-09-05T20:58:31.111Z,23.69
2022-09-05T21:01:22.892Z,23.56
2022-09-05T21:03:57.137Z,23.79
2022-09-05T21:06:26.090Z,23.62
2022-09-05T21:08:56.061Z,23.69
2022-09-05T21:11:32.686Z,23.85
2022-09-05T21:14:04.827Z,23.68
2022-09-05T21:16:37.595Z,23.50
2022-09-05T21:19:04.661Z,23.53
2022-09-05T21:21:33.604Z,23.57
2022-09-05T21:24:16.084Z,23.66
2022-09-05T21:26:47.828Z,23.60
2022-09-05T21:29:22.556Z,23.48
2022-09-05T21:31:59.987Z,23.57
2022-09-05T21:34:31.068Z,23.59
2022-09-05T21:37:06.515Z,23.49
2022-09-05T21:39:56.920Z,23.36
2022-09-05T21:46:05.936Z,23.50
2022-09-05T21:47:39.614Z,23.39
2022-09-05T21:48:15.483Z,23.41
2022-09-05T21:50:48.953Z,23.33
2022-09-05T21:54:47.380Z,23.43
2022-09-05T21:59:26.887Z,23.46
2022-09-05T21:59:37.051Z,23.61
2022-09-05T22:02:07.085Z,23.37
2022-09-05T22:04:41.189Z,23.68
2022-09-05T22:07:20.330Z,23.71
2022-09-05T22:10:00.131Z,23.63
2022-09-05T22:12:31.415Z,23.65
2022-09-05T22:15:11.496Z,23.27
2022-09-05T22:17:47.151Z,23.33
2022-09-05T22:20:16.781Z,23.27
2022-09-05T22:22:56.022Z,23.24
2022-09-05T22:25:30.033Z,23.39
2022-09-05T22:28:07.933Z,23.28
2022-09-05T22:30:38.700Z,23.09
2022-09-05T22:33:06.254Z,23.03
2022-09-05T22:35:36.077Z,23.15
2022-09-05T22:38:12.441Z,22.91
2022-09-05T22:40:41.717Z,23.00
2022-09-05T22:43:10.553Z,22.81
2022-09-05T22:45:38.793Z,22.91
2022-09-05T22:48:10.981Z,22.86
2022-09-05T22:50:38.916Z,22.69
2022-09-05T22:53:08.441Z,22.81
2022-09-05T22:55:40.660Z,22.86
2022-09-05T22:58:13.297Z,22.86
2022-09-05T23:00:41.855Z,22.71
2022-09-05T23:03:09.020Z,22.69
2022-09-05T23:05:36.109Z,22.68
2022-09-05T23:08:04.692Z,22.96
2022-09-05T23:10:31.923Z,22.69
2022-09-05T23:13:02.484Z,22.81
2022-09-05T23:15:29.346Z,22.73
2022-09-05T23:17:58.265Z,22.75
2022-09-05T23:20:27.156Z,22.64
2022-09-05T23:22:54.020Z,22.47
2022-09-05T23:25:21.645Z,22.54
2022-09-05T23:27:49.125Z,22.53
2022-09-05T23:30:16.464Z,22.43
2022-09-05T23:32:50.776Z,22.49
2022-09-05T23:35:19.236Z,22.32
2022-09-05T23:37:47.591Z,22.23
2022-09-05T23:40:22.002Z,22.33
2022-09-05T23:42:57.342Z,22.38
2022-09-05T23:45:25.183Z,22.28
2022-09-05T23:47:52.424Z,22.56
2022-09-05T23:50:20.489Z,22.53
2022-09-05T23:52:47.658Z,22.32
2022-09-05T23:55:17.234Z,22.34
2022-09-05T23:57:44.623Z,22.29
